sensor_id;sensor_type;location;lat;lon;timestamp;pressure;altitude;pressure_sealevel;temperature;humidity
35307;BME280;21420;52.196;21.416;2023-03-03T00:01:19;100640.95;;;-2.22;66.22
35307;BME280;21420;52.196;21.416;2023-03-03T00:03:46;100643.75;;;-2.29;66.32
35307;BME280;21420;52.196;21.416;2023-03-03T00:06:13;100639.27;;;-2.33;66.33
35307;BME280;21420;52.196;21.416;2023-03-03T00:08:41;100636.85;;;-2.34;66.43
35307;BME280;21420;52.196;21.416;2023-03-03T00:11:09;100634.34;;;-2.33;66.48
35307;BME280;21420;52.196;21.416;2023-03-03T00:13:48;100634.59;;;-2.31;66.48
35307;BME280;21420;52.196;21.416;2023-03-03T00:16:30;100633.58;;;-2.31;66.42
35307;BME280;21420;52.196;21.416;2023-03-03T00:18:58;100633.91;;;-2.33;66.57
35307;BME280;21420;52.196;21.416;2023-03-03T00:21:32;100632.20;;;-2.36;66.48
35307;BME280;21420;52.196;21.416;2023-03-03T00:24:20;100633.96;;;-2.40;66.37
35307;BME280;21420;52.196;21.416;2023-03-03T00:26:50;100629.47;;;-2.46;66.45
35307;BME280;21420;52.196;21.416;2023-03-03T00:32:17;100620.30;;;-2.49;66.37
35307;BME280;21420;52.196;21.416;2023-03-03T00:34:46;100617.78;;;-2.52;66.40
35307;BME280;21420;52.196;21.416;2023-03-03T00:37:29;100610.71;;;-2.55;66.48
35307;BME280;21420;52.196;21.416;2023-03-03T00:43:01;100598.05;;;-2.64;66.28
35307;BME280;21420;52.196;21.416;2023-03-03T00:45:42;100594.88;;;-2.68;66.22
35307;BME280;21420;52.196;21.416;2023-03-03T00:50:59;100587.11;;;-2.74;66.47
35307;BME280;21420;52.196;21.416;2023-03-03T00:53:29;100588.02;;;-2.75;66.44
35307;BME280;21420;52.196;21.416;2023-03-03T00:55:57;100580.95;;;-2.77;66.58
35307;BME280;21420;52.196;21.416;2023-03-03T00:58:24;100576.70;;;-2.78;66.48
35307;BME280;21420;52.196;21.416;2023-03-03T01:00:53;100577.05;;;-2.79;66.45
35307;BME280;21420;52.196;21.416;2023-03-03T01:03:25;100573.22;;;-2.78;66.50
35307;BME280;21420;52.196;21.416;2023-03-03T01:05:52;100573.04;;;-2.75;66.75
35307;BME280;21420;52.196;21.416;2023-03-03T01:08:21;100569.71;;;-2.73;66.88
35307;BME280;21420;52.196;21.416;2023-03-03T01:10:56;100565.40;;;-2.71;66.87
35307;BME280;21420;52.196;21.416;2023-03-03T01:13:30;100565.55;;;-2.71;66.76
35307;BME280;21420;52.196;21.416;2023-03-03T01:15:59;100564.52;;;-2.72;66.75
35307;BME280;21420;52.196;21.416;2023-03-03T01:18:26;100564.20;;;-2.78;66.76
35307;BME280;21420;52.196;21.416;2023-03-03T01:20:54;100558.16;;;-2.84;66.64
35307;BME280;21420;52.196;21.416;2023-03-03T01:23:20;100554.15;;;-2.89;66.66
35307;BME280;21420;52.196;21.416;2023-03-03T01:25:47;100553.83;;;-2.93;66.55
35307;BME280;21420;52.196;21.416;2023-03-03T01:28:15;100551.77;;;-2.95;66.62
35307;BME280;21420;52.196;21.416;2023-03-03T01:30:42;100545.91;;;-2.93;66.89
35307;BME280;21420;52.196;21.416;2023-03-03T01:33:08;100541.45;;;-2.89;66.93
35307;BME280;21420;52.196;21.416;2023-03-03T01:35:35;100539.80;;;-2.85;66.97
35307;BME280;21420;52.196;21.416;2023-03-03T01:38:03;100532.96;;;-2.84;67.02
35307;BME280;21420;52.196;21.416;2023-03-03T01:40:30;100526.41;;;-2.85;66.90
35307;BME280;21420;52.196;21.416;2023-03-03T01:43:00;100529.73;;;-2.85;66.78
35307;BME280;21420;52.196;21.416;2023-03-03T01:45:30;100529.44;;;-2.87;66.88
35307;BME280;21420;52.196;21.416;2023-03-03T01:50:48;100524.10;;;-2.95;66.85
35307;BME280;21420;52.196;21.416;2023-03-03T01:53:23;100518.72;;;-3.03;66.74
35307;BME280;21420;52.196;21.416;2023-03-03T01:55:53;100517.59;;;-3.09;66.68
35307;BME280;21420;52.196;21.416;2023-03-03T01:58:25;100521.95;;;-3.11;66.81
35307;BME280;21420;52.196;21.416;2023-03-03T02:01:01;100521.77;;;-3.12;66.81
35307;BME280;21420;52.196;21.416;2023-03-03T02:03:29;100519.41;;;-3.12;67.13
35307;BME280;21420;52.196;21.416;2023-03-03T02:06:05;100519.54;;;-3.15;67.05
35307;BME280;21420;52.196;21.416;2023-03-03T02:08:42;100519.83;;;-3.17;67.08
35307;BME280;21420;52.196;21.416;2023-03-03T02:11:12;100516.73;;;-3.15;67.19
35307;BME280;21420;52.196;21.416;2023-03-03T02:13:39;100518.85;;;-3.11;67.08
35307;BME280;21420;52.196;21.416;2023-03-03T02:16:06;100516.81;;;-3.08;67.15
35307;BME280;21420;52.196;21.416;2023-03-03T02:18:34;100513.61;;;-3.06;67.15
35307;BME280;21420;52.196;21.416;2023-03-03T02:21:09;100514.91;;;-3.03;67.17
35307;BME280;21420;52.196;21.416;2023-03-03T02:26:26;100514.35;;;-2.90;67.43
35307;BME280;21420;52.196;21.416;2023-03-03T02:28:57;100514.59;;;-2.83;67.39
35307;BME280;21420;52.196;21.416;2023-03-03T02:31:27;100515.95;;;-2.75;67.33
35307;BME280;21420;52.196;21.416;2023-03-03T02:33:56;100509.94;;;-2.65;67.48
35307;BME280;21420;52.196;21.416;2023-03-03T02:36:29;100512.36;;;-2.58;67.32
35307;BME280;21420;52.196;21.416;2023-03-03T02:44:33;100502.46;;;-2.37;67.42
35307;BME280;21420;52.196;21.416;2023-03-03T02:47:00;100500.99;;;-2.32;67.44
35307;BME280;21420;52.196;21.416;2023-03-03T02:49:32;100501.73;;;-2.25;67.49
35307;BME280;21420;52.196;21.416;2023-03-03T02:52:02;100498.38;;;-2.19;67.44
35307;BME280;21420;52.196;21.416;2023-03-03T02:54:30;100495.55;;;-2.12;67.33
35307;BME280;21420;52.196;21.416;2023-03-03T02:56:59;100489.14;;;-2.06;67.42
35307;BME280;21420;52.196;21.416;2023-03-03T02:59:26;100492.88;;;-1.99;67.40
35307;BME280;21420;52.196;21.416;2023-03-03T03:01:54;100492.50;;;-1.91;67.41
35307;BME280;21420;52.196;21.416;2023-03-03T03:04:23;100489.98;;;-1.85;67.49
35307;BME280;21420;52.196;21.416;2023-03-03T03:06:52;100494.75;;;-1.82;67.60
35307;BME280;21420;52.196;21.416;2023-03-03T03:09:22;100494.04;;;-1.79;67.51
35307;BME280;21420;52.196;21.416;2023-03-03T03:11:51;100488.44;;;-1.75;67.56
35307;BME280;21420;52.196;21.416;2023-03-03T03:14:20;100483.11;;;-1.70;67.54
35307;BME280;21420;52.196;21.416;2023-03-03T03:16:53;100480.29;;;-1.65;67.49
35307;BME280;21420;52.196;21.416;2023-03-03T03:19:20;100474.42;;;-1.61;67.52
35307;BME280;21420;52.196;21.416;2023-03-03T03:21:47;100472.50;;;-1.60;67.55
35307;BME280;21420;52.196;21.416;2023-03-03T03:24:14;100474.21;;;-1.60;67.39
35307;BME280;21420;52.196;21.416;2023-03-03T03:26:45;100473.20;;;-1.59;67.35
35307;BME280;21420;52.196;21.416;2023-03-03T03:29:12;100476.69;;;-1.59;67.49
35307;BME280;21420;52.196;21.416;2023-03-03T03:31:39;100477.03;;;-1.57;67.35
35307;BME280;21420;52.196;21.416;2023-03-03T03:34:07;100475.45;;;-1.54;67.45
35307;BME280;21420;52.196;21.416;2023-03-03T03:36:34;100477.34;;;-1.52;67.50
35307;BME280;21420;52.196;21.416;2023-03-03T03:39:01;100474.77;;;-1.52;67.44
35307;BME280;21420;52.196;21.416;2023-03-03T03:41:29;100479.30;;;-1.51;67.51
35307;BME280;21420;52.196;21.416;2023-03-03T03:43:55;100478.38;;;-1.51;67.52
35307;BME280;21420;52.196;21.416;2023-03-03T03:46:23;100479.68;;;-1.50;67.55
35307;BME280;21420;52.196;21.416;2023-03-03T03:48:50;100478.05;;;-1.47;67.50
35307;BME280;21420;52.196;21.416;2023-03-03T03:51:18;100474.95;;;-1.44;67.61
35307;BME280;21420;52.196;21.416;2023-03-03T03:53:45;100475.77;;;-1.44;67.58
35307;BME280;21420;52.196;21.416;2023-03-03T03:56:12;100475.82;;;-1.44;67.53
35307;BME280;21420;52.196;21.416;2023-03-03T03:58:40;100475.38;;;-1.45;67.62
35307;BME280;21420;52.196;21.416;2023-03-03T04:01:08;100462.69;;;-1.47;67.53
35307;BME280;21420;52.196;21.416;2023-03-03T04:03:40;100459.96;;;-1.51;67.44
35307;BME280;21420;52.196;21.416;2023-03-03T04:06:09;100456.73;;;-1.57;67.36
35307;BME280;21420;52.196;21.416;2023-03-03T04:08:36;100452.99;;;-1.65;67.44
35307;BME280;21420;52.196;21.416;2023-03-03T04:11:03;100450.42;;;-1.75;67.41
35307;BME280;21420;52.196;21.416;2023-03-03T04:13:31;100453.03;;;-1.82;67.37
35307;BME280;21420;52.196;21.416;2023-03-03T04:16:03;100459.02;;;-1.88;67.37
35307;BME280;21420;52.196;21.416;2023-03-03T04:18:30;100457.55;;;-1.91;67.42
35307;BME280;21420;52.196;21.416;2023-03-03T04:20:58;100457.09;;;-1.94;67.62
35307;BME280;21420;52.196;21.416;2023-03-03T04:23:25;100454.73;;;-1.98;67.52
35307;BME280;21420;52.196;21.416;2023-03-03T04:25:52;100453.05;;;-2.04;67.67
35307;BME280;21420;52.196;21.416;2023-03-03T04:28:19;100448.09;;;-2.10;67.47
35307;BME280;21420;52.196;21.416;2023-03-03T04:30:48;100440.03;;;-2.15;67.45
35307;BME280;21420;52.196;21.416;2023-03-03T04:33:15;100440.33;;;-2.21;67.47
35307;BME280;21420;52.196;21.416;2023-03-03T04:35:43;100436.75;;;-2.28;67.45
35307;BME280;21420;52.196;21.416;2023-03-03T04:38:10;100432.19;;;-2.33;67.42
35307;BME280;21420;52.196;21.416;2023-03-03T04:40:39;100426.64;;;-2.39;67.47
35307;BME280;21420;52.196;21.416;2023-03-03T04:43:08;100429.91;;;-2.43;67.50
35307;BME280;21420;52.196;21.416;2023-03-03T04:45:36;100424.20;;;-2.45;67.60
35307;BME280;21420;52.196;21.416;2023-03-03T04:48:03;100423.64;;;-2.47;67.57
35307;BME280;21420;52.196;21.416;2023-03-03T04:50:31;100429.22;;;-2.51;67.55
35307;BME280;21420;52.196;21.416;2023-03-03T04:52:58;100422.13;;;-2.56;67.62
35307;BME280;21420;52.196;21.416;2023-03-03T04:55:25;100417.73;;;-2.61;67.48
35307;BME280;21420;52.196;21.416;2023-03-03T04:57:52;100414.60;;;-2.65;67.43
35307;BME280;21420;52.196;21.416;2023-03-03T05:00:19;100413.28;;;-2.68;67.35
35307;BME280;21420;52.196;21.416;2023-03-03T05:02:47;100413.98;;;-2.71;67.47
35307;BME280;21420;52.196;21.416;2023-03-03T05:05:14;100411.42;;;-2.73;67.57
35307;BME280;21420;52.196;21.416;2023-03-03T05:07:41;100410.47;;;-2.77;67.77
35307;BME280;21420;52.196;21.416;2023-03-03T05:10:09;100408.93;;;-2.80;67.72
35307;BME280;21420;52.196;21.416;2023-03-03T05:12:37;100407.77;;;-2.81;67.68
35307;BME280;21420;52.196;21.416;2023-03-03T05:15:04;100408.23;;;-2.83;67.72
35307;BME280;21420;52.196;21.416;2023-03-03T05:17:32;100408.65;;;-2.84;67.74
35307;BME280;21420;52.196;21.416;2023-03-03T05:19:58;100406.58;;;-2.87;67.65
35307;BME280;21420;52.196;21.416;2023-03-03T05:22:25;100410.18;;;-2.89;67.76
35307;BME280;21420;52.196;21.416;2023-03-03T05:24:52;100411.56;;;-2.90;67.88
35307;BME280;21420;52.196;21.416;2023-03-03T05:27:19;100407.00;;;-2.91;67.73
35307;BME280;21420;52.196;21.416;2023-03-03T05:29:46;100406.56;;;-2.91;67.76
35307;BME280;21420;52.196;21.416;2023-03-03T05:32:13;100409.19;;;-2.92;67.94
35307;BME280;21420;52.196;21.416;2023-03-03T05:34:40;100410.26;;;-2.92;67.88
35307;BME280;21420;52.196;21.416;2023-03-03T05:37:07;100407.81;;;-2.90;67.96
35307;BME280;21420;52.196;21.416;2023-03-03T05:39:34;100406.64;;;-2.86;68.02
35307;BME280;21420;52.196;21.416;2023-03-03T05:42:01;100403.44;;;-2.81;67.92
35307;BME280;21420;52.196;21.416;2023-03-03T05:44:28;100403.58;;;-2.72;68.01
35307;BME280;21420;52.196;21.416;2023-03-03T05:46:55;100400.86;;;-2.58;68.15
35307;BME280;21420;52.196;21.416;2023-03-03T05:49:24;100399.30;;;-2.41;68.17
35307;BME280;21420;52.196;21.416;2023-03-03T05:51:51;100403.44;;;-2.19;68.19
35307;BME280;21420;52.196;21.416;2023-03-03T05:54:19;100403.34;;;-1.94;68.33
35307;BME280;21420;52.196;21.416;2023-03-03T05:56:46;100399.92;;;-1.66;68.37
35307;BME280;21420;52.196;21.416;2023-03-03T05:59:13;100399.81;;;-1.36;68.50
35307;BME280;21420;52.196;21.416;2023-03-03T06:01:41;100402.20;;;-0.99;68.67
35307;BME280;21420;52.196;21.416;2023-03-03T06:04:07;100392.32;;;-0.57;68.68
35307;BME280;21420;52.196;21.416;2023-03-03T06:06:35;100391.69;;;-0.34;68.34
35307;BME280;21420;52.196;21.416;2023-03-03T06:09:02;100392.83;;;-0.31;68.19
35307;BME280;21420;52.196;21.416;2023-03-03T06:11:29;100392.20;;;-0.37;68.02
35307;BME280;21420;52.196;21.416;2023-03-03T06:13:56;100389.13;;;-0.41;68.01
35307;BME280;21420;52.196;21.416;2023-03-03T06:16:23;100388.68;;;-0.44;67.94
35307;BME280;21420;52.196;21.416;2023-03-03T06:18:50;100389.52;;;-0.50;67.81
35307;BME280;21420;52.196;21.416;2023-03-03T06:21:17;100388.58;;;-0.55;67.90
35307;BME280;21420;52.196;21.416;2023-03-03T06:23:44;100393.06;;;-0.60;67.80
35307;BME280;21420;52.196;21.416;2023-03-03T06:26:11;100395.09;;;-0.65;67.80
35307;BME280;21420;52.196;21.416;2023-03-03T06:28:38;100395.71;;;-0.69;67.97
35307;BME280;21420;52.196;21.416;2023-03-03T06:31:05;100398.41;;;-0.66;68.03
35307;BME280;21420;52.196;21.416;2023-03-03T06:33:32;100394.42;;;-0.56;68.15
35307;BME280;21420;52.196;21.416;2023-03-03T06:35:58;100394.48;;;-0.45;68.13
35307;BME280;21420;52.196;21.416;2023-03-03T06:38:25;100391.66;;;-0.26;68.38
35307;BME280;21420;52.196;21.416;2023-03-03T06:40:52;100388.19;;;-0.01;68.46
35307;BME280;21420;52.196;21.416;2023-03-03T06:43:19;100391.02;;;0.40;68.81
35307;BME280;21420;52.196;21.416;2023-03-03T06:45:46;100391.17;;;1.07;69.29
35307;BME280;21420;52.196;21.416;2023-03-03T06:48:13;100390.30;;;1.80;69.48
35307;BME280;21420;52.196;21.416;2023-03-03T06:50:40;100388.23;;;2.41;69.34
35307;BME280;21420;52.196;21.416;2023-03-03T06:53:14;100386.80;;;2.98;69.26
35307;BME280;21420;52.196;21.416;2023-03-03T06:55:41;100384.29;;;3.28;68.52
35307;BME280;21420;52.196;21.416;2023-03-03T06:58:15;100387.60;;;3.10;67.84
35307;BME280;21420;52.196;21.416;2023-03-03T07:00:44;100387.24;;;2.79;67.52
35307;BME280;21420;52.196;21.416;2023-03-03T07:03:17;100385.61;;;2.30;67.00
35307;BME280;21420;52.196;21.416;2023-03-03T07:05:44;100386.00;;;1.89;66.86
35307;BME280;21420;52.196;21.416;2023-03-03T07:08:18;100379.98;;;1.55;66.75
35307;BME280;21420;52.196;21.416;2023-03-03T07:10:47;100387.26;;;1.22;66.67
35307;BME280;21420;52.196;21.416;2023-03-03T07:15:43;100387.69;;;0.72;66.88
35307;BME280;21420;52.196;21.416;2023-03-03T07:18:24;100386.63;;;0.65;67.11
35307;BME280;21420;52.196;21.416;2023-03-03T07:20:52;100390.17;;;0.57;67.07
35307;BME280;21420;52.196;21.416;2023-03-03T07:23:31;100389.95;;;0.50;67.07
35307;BME280;21420;52.196;21.416;2023-03-03T07:26:14;100393.02;;;0.47;67.31
35307;BME280;21420;52.196;21.416;2023-03-03T07:28:43;100385.09;;;0.45;67.22
35307;BME280;21420;52.196;21.416;2023-03-03T07:31:41;100381.85;;;0.35;67.05
35307;BME280;21420;52.196;21.416;2023-03-03T07:34:23;100377.36;;;0.21;67.05
35307;BME280;21420;52.196;21.416;2023-03-03T07:36:57;100385.20;;;0.07;66.91
35307;BME280;21420;52.196;21.416;2023-03-03T07:39:37;100393.36;;;-0.02;67.15
35307;BME280;21420;52.196;21.416;2023-03-03T07:42:26;100393.98;;;-0.10;67.21
35307;BME280;21420;52.196;21.416;2023-03-03T07:47:48;100393.11;;;-0.26;67.35
35307;BME280;21420;52.196;21.416;2023-03-03T07:50:18;100396.92;;;-0.29;67.42
35307;BME280;21420;52.196;21.416;2023-03-03T07:52:54;100401.06;;;-0.32;67.43
35307;BME280;21420;52.196;21.416;2023-03-03T07:55:30;100405.95;;;-0.34;67.68
35307;BME280;21420;52.196;21.416;2023-03-03T07:58:35;100406.21;;;-0.34;67.61
35307;BME280;21420;52.196;21.416;2023-03-03T08:01:39;100407.90;;;-0.29;67.59
35307;BME280;21420;52.196;21.416;2023-03-03T08:06:51;100415.10;;;-0.22;67.91
35307;BME280;21420;52.196;21.416;2023-03-03T08:14:30;100425.65;;;-0.23;67.69
35307;BME280;21420;52.196;21.416;2023-03-03T08:17:00;100424.84;;;-0.22;67.84
35307;BME280;21420;52.196;21.416;2023-03-03T08:19:30;100423.88;;;-0.17;67.79
35307;BME280;21420;52.196;21.416;2023-03-03T08:22:01;100425.48;;;-0.12;67.81
35307;BME280;21420;52.196;21.416;2023-03-03T08:24:35;100427.11;;;-0.05;68.09
35307;BME280;21420;52.196;21.416;2023-03-03T08:27:04;100435.38;;;0.00;68.20
35307;BME280;21420;52.196;21.416;2023-03-03T08:29:31;100442.48;;;0.03;68.23
35307;BME280;21420;52.196;21.416;2023-03-03T08:31:57;100438.73;;;0.03;67.88
35307;BME280;21420;52.196;21.416;2023-03-03T08:34:25;100436.35;;;0.04;67.75
35307;BME280;21420;52.196;21.416;2023-03-03T08:36:52;100440.13;;;0.03;67.83
35307;BME280;21420;52.196;21.416;2023-03-03T08:39:18;100436.15;;;0.08;68.03
35307;BME280;21420;52.196;21.416;2023-03-03T08:41:48;100434.09;;;0.07;67.93
35307;BME280;21420;52.196;21.416;2023-03-03T08:44:15;100433.44;;;0.02;67.71
35307;BME280;21420;52.196;21.416;2023-03-03T08:46:42;100459.30;;;0.05;68.06
35307;BME280;21420;52.196;21.416;2023-03-03T08:49:09;100459.77;;;0.16;68.31
35307;BME280;21420;52.196;21.416;2023-03-03T08:51:37;100451.42;;;0.19;68.13
35307;BME280;21420;52.196;21.416;2023-03-03T08:54:04;100450.58;;;0.24;68.21
35307;BME280;21420;52.196;21.416;2023-03-03T08:56:31;100460.04;;;0.32;68.27
35307;BME280;21420;52.196;21.416;2023-03-03T08:58:58;100460.98;;;0.44;68.50
35307;BME280;21420;52.196;21.416;2023-03-03T09:01:30;100453.83;;;0.54;68.53
35307;BME280;21420;52.196;21.416;2023-03-03T09:03:58;100450.71;;;0.61;68.55
35307;BME280;21420;52.196;21.416;2023-03-03T09:06:25;100451.96;;;0.71;68.60
35307;BME280;21420;52.196;21.416;2023-03-03T09:08:52;100449.48;;;0.73;68.40
35307;BME280;21420;52.196;21.416;2023-03-03T09:11:24;100446.58;;;0.73;68.14
35307;BME280;21420;52.196;21.416;2023-03-03T09:14:13;100446.52;;;0.73;68.32
35307;BME280;21420;52.196;21.416;2023-03-03T09:16:49;100440.10;;;0.78;68.22
35307;BME280;21420;52.196;21.416;2023-03-03T09:22:00;100428.56;;;0.92;68.55
35307;BME280;21420;52.196;21.416;2023-03-03T09:24:35;100430.78;;;1.00;68.37
35307;BME280;21420;52.196;21.416;2023-03-03T09:27:33;100430.01;;;1.06;68.49
35307;BME280;21420;52.196;21.416;2023-03-03T09:32:52;100417.66;;;1.11;68.48
35307;BME280;21420;52.196;21.416;2023-03-03T09:35:26;100412.95;;;1.17;68.40
35307;BME280;21420;52.196;21.416;2023-03-03T09:38:01;100409.51;;;1.14;68.23
35307;BME280;21420;52.196;21.416;2023-03-03T09:43:56;100404.20;;;1.20;68.31
35307;BME280;21420;52.196;21.416;2023-03-03T09:49:33;100401.25;;;1.10;68.04
35307;BME280;21420;52.196;21.416;2023-03-03T09:55:55;100393.77;;;1.06;67.93
35307;BME280;21420;52.196;21.416;2023-03-03T10:11:43;100407.10;;;0.86;68.13
35307;BME280;21420;52.196;21.416;2023-03-03T10:17:54;100405.06;;;0.83;68.07
35307;BME280;21420;52.196;21.416;2023-03-03T10:25:40;100415.67;;;0.76;68.03
35307;BME280;21420;52.196;21.416;2023-03-03T10:37:06;100404.52;;;0.74;68.15
35307;BME280;21420;52.196;21.416;2023-03-03T11:08:08;100404.30;;;0.94;68.65
35307;BME280;21420;52.196;21.416;2023-03-03T11:10:47;100400.19;;;1.04;68.66
35307;BME280;21420;52.196;21.416;2023-03-03T11:16:16;100399.02;;;0.94;68.28
35307;BME280;21420;52.196;21.416;2023-03-03T11:32:37;100388.77;;;0.92;68.46
35307;BME280;21420;52.196;21.416;2023-03-03T11:35:21;100387.48;;;0.87;68.20
35307;BME280;21420;52.196;21.416;2023-03-03T11:46:10;100388.88;;;0.60;68.03
35307;BME280;21420;52.196;21.416;2023-03-03T11:48:46;100386.73;;;0.60;68.24
35307;BME280;21420;52.196;21.416;2023-03-03T11:51:31;100384.63;;;0.63;68.45
35307;BME280;21420;52.196;21.416;2023-03-03T11:54:04;100381.87;;;0.70;68.51
35307;BME280;21420;52.196;21.416;2023-03-03T11:56:44;100380.73;;;0.79;68.50
35307;BME280;21420;52.196;21.416;2023-03-03T11:59:36;100381.44;;;0.80;68.31
35307;BME280;21420;52.196;21.416;2023-03-03T12:05:39;100390.73;;;0.82;68.65
35307;BME280;21420;52.196;21.416;2023-03-03T12:13:44;100393.36;;;0.92;68.66
35307;BME280;21420;52.196;21.416;2023-03-03T12:16:26;100394.16;;;0.93;68.58
35307;BME280;21420;52.196;21.416;2023-03-03T12:25:36;100393.73;;;0.93;68.54
35307;BME280;21420;52.196;21.416;2023-03-03T12:38:58;100391.14;;;0.84;68.65
35307;BME280;21420;52.196;21.416;2023-03-03T12:41:36;100389.08;;;0.85;68.46
35307;BME280;21420;52.196;21.416;2023-03-03T12:44:23;100388.14;;;0.82;68.32
35307;BME280;21420;52.196;21.416;2023-03-03T12:47:08;100392.02;;;0.80;68.46
35307;BME280;21420;52.196;21.416;2023-03-03T12:53:26;100389.32;;;0.79;68.30
35307;BME280;21420;52.196;21.416;2023-03-03T12:56:03;100393.14;;;0.75;68.40
35307;BME280;21420;52.196;21.416;2023-03-03T12:58:41;100396.17;;;0.72;68.28
35307;BME280;21420;52.196;21.416;2023-03-03T13:01:21;100395.19;;;0.74;68.30
35307;BME280;21420;52.196;21.416;2023-03-03T13:04:02;100394.98;;;0.72;68.18
35307;BME280;21420;52.196;21.416;2023-03-03T13:06:36;100391.46;;;0.61;68.12
35307;BME280;21420;52.196;21.416;2023-03-03T13:15:14;100389.73;;;0.47;68.10
35307;BME280;21420;52.196;21.416;2023-03-03T13:20:53;100382.39;;;0.30;68.01
35307;BME280;21420;52.196;21.416;2023-03-03T13:23:48;100381.20;;;0.30;68.10
35307;BME280;21420;52.196;21.416;2023-03-03T13:33:00;100380.89;;;0.34;68.36
35307;BME280;21420;52.196;21.416;2023-03-03T13:35:52;100380.35;;;0.35;68.29
35307;BME280;21420;52.196;21.416;2023-03-03T13:38:33;100376.59;;;0.43;68.35
35307;BME280;21420;52.196;21.416;2023-03-03T13:41:29;100377.77;;;0.45;68.45
35307;BME280;21420;52.196;21.416;2023-03-03T13:44:05;100378.30;;;0.43;68.45
35307;BME280;21420;52.196;21.416;2023-03-03T13:52:08;100371.48;;;0.48;68.53
35307;BME280;21420;52.196;21.416;2023-03-03T14:05:14;100360.80;;;0.34;68.39
35307;BME280;21420;52.196;21.416;2023-03-03T14:13:18;100358.21;;;0.45;68.63
35307;BME280;21420;52.196;21.416;2023-03-03T14:15:57;100363.17;;;0.47;68.40
35307;BME280;21420;52.196;21.416;2023-03-03T14:18:28;100368.23;;;0.45;68.52
35307;BME280;21420;52.196;21.416;2023-03-03T14:21:08;100362.95;;;0.37;68.25
35307;BME280;21420;52.196;21.416;2023-03-03T14:26:09;100361.38;;;0.31;68.37
35307;BME280;21420;52.196;21.416;2023-03-03T14:28:43;100365.20;;;0.29;68.38
35307;BME280;21420;52.196;21.416;2023-03-03T14:31:29;100360.46;;;0.21;68.35
35307;BME280;21420;52.196;21.416;2023-03-03T14:36:40;100362.97;;;0.11;68.40
35307;BME280;21420;52.196;21.416;2023-03-03T14:39:29;100363.73;;;0.10;68.37
35307;BME280;21420;52.196;21.416;2023-03-03T14:41:58;100364.54;;;0.13;68.49
35307;BME280;21420;52.196;21.416;2023-03-03T14:44:31;100362.87;;;0.17;68.63
35307;BME280;21420;52.196;21.416;2023-03-03T14:49:34;100356.71;;;0.06;68.37
35307;BME280;21420;52.196;21.416;2023-03-03T14:54:44;100351.63;;;0.03;68.37
35307;BME280;21420;52.196;21.416;2023-03-03T14:57:16;100349.91;;;0.02;68.40
35307;BME280;21420;52.196;21.416;2023-03-03T15:00:05;100349.33;;;0.07;68.69
35307;BME280;21420;52.196;21.416;2023-03-03T15:02:37;100351.56;;;0.15;68.76
35307;BME280;21420;52.196;21.416;2023-03-03T15:05:17;100350.65;;;0.20;68.56
35307;BME280;21420;52.196;21.416;2023-03-03T15:07:53;100349.20;;;0.23;68.64
35307;BME280;21420;52.196;21.416;2023-03-03T15:10:39;100352.92;;;0.25;68.66
35307;BME280;21420;52.196;21.416;2023-03-03T15:18:30;100355.39;;;0.18;68.53
35307;BME280;21420;52.196;21.416;2023-03-03T15:21:07;100351.55;;;0.14;68.61
35307;BME280;21420;52.196;21.416;2023-03-03T15:23:43;100348.86;;;0.12;68.61
35307;BME280;21420;52.196;21.416;2023-03-03T15:28:54;100354.08;;;0.15;68.58
35307;BME280;21420;52.196;21.416;2023-03-03T15:32:03;100356.92;;;0.10;68.47
35307;BME280;21420;52.196;21.416;2023-03-03T15:34:43;100361.08;;;0.04;68.37
35307;BME280;21420;52.196;21.416;2023-03-03T15:42:14;100356.41;;;-0.07;68.41
35307;BME280;21420;52.196;21.416;2023-03-03T16:02:16;100340.52;;;-0.29;68.50
35307;BME280;21420;52.196;21.416;2023-03-03T16:20:46;100353.88;;;-0.28;68.53
35307;BME280;21420;52.196;21.416;2023-03-03T16:23:45;100347.46;;;-0.30;68.55
35307;BME280;21420;52.196;21.416;2023-03-03T16:32:18;100341.70;;;-0.28;68.65
35307;BME280;21420;52.196;21.416;2023-03-03T16:40:37;100340.98;;;-0.33;68.54
35307;BME280;21420;52.196;21.416;2023-03-03T16:43:11;100337.80;;;-0.36;68.51
35307;BME280;21420;52.196;21.416;2023-03-03T16:45:44;100335.85;;;-0.41;68.71
35307;BME280;21420;52.196;21.416;2023-03-03T16:54:05;100341.84;;;-0.34;68.83
35307;BME280;21420;52.196;21.416;2023-03-03T16:56:51;100336.04;;;-0.33;68.71
35307;BME280;21420;52.196;21.416;2023-03-03T16:59:41;100334.10;;;-0.35;68.88
35307;BME280;21420;52.196;21.416;2023-03-03T17:05:26;100326.67;;;-0.35;68.74
35307;BME280;21420;52.196;21.416;2023-03-03T17:10:47;100338.22;;;-0.39;68.81
35307;BME280;21420;52.196;21.416;2023-03-03T17:13:26;100337.91;;;-0.38;68.72
35307;BME280;21420;52.196;21.416;2023-03-03T17:38:15;100335.92;;;-0.51;68.85
35307;BME280;21420;52.196;21.416;2023-03-03T17:41:06;100329.56;;;-0.50;68.82
35307;BME280;21420;52.196;21.416;2023-03-03T17:46:46;100339.86;;;-0.48;68.84
35307;BME280;21420;52.196;21.416;2023-03-03T17:49:35;100339.91;;;-0.48;68.83
35307;BME280;21420;52.196;21.416;2023-03-03T17:52:30;100335.29;;;-0.48;68.88
35307;BME280;21420;52.196;21.416;2023-03-03T17:55:19;100325.07;;;-0.49;68.87
35307;BME280;21420;52.196;21.416;2023-03-03T18:13:08;100316.73;;;-0.45;68.91
35307;BME280;21420;52.196;21.416;2023-03-03T18:23:28;100321.01;;;-0.54;68.87
35307;BME280;21420;52.196;21.416;2023-03-03T18:28:51;100318.98;;;-0.53;69.05
35307;BME280;21420;52.196;21.416;2023-03-03T18:31:44;100322.20;;;-0.52;68.90
35307;BME280;21420;52.196;21.416;2023-03-03T18:48:01;100299.71;;;-0.63;69.02
35307;BME280;21420;52.196;21.416;2023-03-03T18:50:32;100298.74;;;-0.50;69.04
35307;BME280;21420;52.196;21.416;2023-03-03T18:53:25;100298.08;;;-0.38;69.32
35307;BME280;21420;52.196;21.416;2023-03-03T18:55:55;100296.14;;;-0.20;69.55